Time;durP1;ratioP1;P1;durP2;ratioP2;P2;SDS_P1;SDS_P2;PMS_P1;PMS_P2;Temp;Humidity;BMP_temperature;BMP_pressure;BME280_temperature;BME280_humidity;BME280_pressure;Samples;Min_cycle;Max_cycle;Signal;HPM_P1;HPM_P2
2021/05/10 00:01:16;;;;;;;1.02;0.70;;;19.70;40.40;;;;;;5029320;28;20041;-64
2021/05/10 00:03:46;;;;;;;0.90;0.77;;;19.70;40.50;;;;;;5029790;28;20037;-64
2021/05/10 00:06:14;;;;;;;1.00;0.70;;;19.70;40.40;;;;;;5032398;28;20053;-64
2021/05/10 00:08:43;;;;;;;1.33;0.80;;;19.70;40.40;;;;;;5036190;28;20145;-64
2021/05/10 00:11:15;;;;;;;0.88;0.70;;;19.70;40.50;;;;;;5033246;28;20061;-64
2021/05/10 00:13:47;;;;;;;4.18;0.73;;;19.60;40.40;;;;;;5034339;28;20038;-64
2021/05/10 00:16:15;;;;;;;1.10;0.75;;;19.60;40.30;;;;;;5035456;28;20056;-64
2021/05/10 00:18:43;;;;;;;1.80;0.80;;;19.60;40.30;;;;;;5037261;28;20083;-64
2021/05/10 00:21:11;;;;;;;1.70;0.65;;;19.60;40.40;;;;;;5044338;28;20105;-64
2021/05/10 00:23:38;;;;;;;0.77;0.70;;;19.60;40.30;;;;;;5033457;28;20108;-64
2021/05/10 00:26:08;;;;;;;0.77;0.77;;;19.60;40.40;;;;;;5032942;28;20527;-64
2021/05/10 00:28:36;;;;;;;1.08;0.63;;;19.60;40.40;;;;;;5033264;28;20029;-63
2021/05/10 00:31:07;;;;;;;1.13;0.70;;;19.50;40.50;;;;;;5037606;28;20041;-64
2021/05/10 00:33:34;;;;;;;1.85;0.90;;;19.50;40.50;;;;;;5051400;28;20044;-64
2021/05/10 00:36:02;;;;;;;1.13;0.73;;;19.50;40.50;;;;;;5034214;28;20043;-64
2021/05/10 00:38:35;;;;;;;2.13;0.68;;;19.50;41.40;;;;;;5034430;28;20025;-64
2021/05/10 00:41:03;;;;;;;0.98;0.70;;;19.50;41.20;;;;;;5031069;28;20038;-64
2021/05/10 00:43:33;;;;;;;0.90;0.70;;;19.40;41.40;;;;;;5036576;28;20051;-64
2021/05/10 00:45:59;;;;;;;0.80;0.63;;;19.40;41.60;;;;;;5034357;28;20076;-64
2021/05/10 00:48:29;;;;;;;2.00;0.80;;;19.30;41.60;;;;;;5032647;28;20061;-64
2021/05/10 00:50:59;;;;;;;0.70;0.70;;;19.20;41.70;;;;;;5035073;28;20036;-63
2021/05/10 00:53:25;;;;;;;1.80;0.90;;;19.10;41.90;;;;;;5034734;28;20037;-64
2021/05/10 00:55:51;;;;;;;0.80;0.68;;;19.10;41.50;;;;;;5034114;28;20042;-64
2021/05/10 00:58:18;;;;;;;1.42;0.80;;;19.10;41.60;;;;;;5038307;28;20044;-64
2021/05/10 01:00:44;;;;;;;0.68;0.68;;;19.10;41.60;;;;;;5034554;28;20033;-64
2021/05/10 01:03:14;;;;;;;1.25;0.70;;;19.10;41.70;;;;;;5029633;28;20041;-64
2021/05/10 01:05:44;;;;;;;3.90;1.00;;;19.10;41.80;;;;;;5031234;28;20500;-64
2021/05/10 01:08:10;;;;;;;1.17;0.73;;;19.10;42.00;;;;;;5035495;28;20087;-64
2021/05/10 01:10:36;;;;;;;1.52;0.73;;;19.10;41.80;;;;;;5029166;28;20029;-63
2021/05/10 01:13:09;;;;;;;1.38;0.75;;;19.10;41.90;;;;;;5033138;28;20044;-64
2021/05/10 01:15:36;;;;;;;1.00;0.82;;;19.00;42.20;;;;;;5033213;28;20056;-64
2021/05/10 01:18:04;;;;;;;2.58;0.73;;;19.00;42.20;;;;;;5031250;28;20080;-64
2021/05/10 01:20:34;;;;;;;2.67;0.80;;;18.90;42.50;;;;;;5032232;28;20029;-64
2021/05/10 01:23:03;;;;;;;1.23;0.80;;;18.90;42.80;;;;;;5034081;28;20124;-64
2021/05/10 01:25:31;;;;;;;1.65;0.65;;;18.90;42.70;;;;;;5034582;28;20049;-64
2021/05/10 01:28:03;;;;;;;2.10;0.82;;;18.80;42.90;;;;;;5036250;28;20029;-64
2021/05/10 01:30:32;;;;;;;1.30;0.80;;;18.80;42.90;;;;;;5030459;28;20033;-64
2021/05/10 01:33:03;;;;;;;2.95;0.80;;;18.70;43.00;;;;;;5031842;28;20083;-64
2021/05/10 01:35:39;;;;;;;1.75;0.85;;;18.70;43.50;;;;;;5032984;28;20048;-64
2021/05/10 01:38:10;;;;;;;0.82;0.80;;;18.70;43.60;;;;;;5034187;28;20029;-64
2021/05/10 01:40:40;;;;;;;0.88;0.80;;;18.70;43.90;;;;;;5032993;28;20575;-64
2021/05/10 01:43:11;;;;;;;2.28;1.25;;;18.70;44.00;;;;;;5036220;28;20040;-64
2021/05/10 01:45:39;;;;;;;1.30;0.90;;;18.70;43.70;;;;;;5035663;28;20033;-64
2021/05/10 01:48:09;;;;;;;2.47;0.85;;;18.70;43.90;;;;;;5033491;28;20034;-64
2021/05/10 01:50:39;;;;;;;2.28;0.80;;;18.70;44.10;;;;;;5033908;28;20033;-64
2021/05/10 01:53:08;;;;;;;1.45;0.90;;;18.60;44.30;;;;;;5034485;28;20033;-64
2021/05/10 01:55:36;;;;;;;1.17;0.90;;;18.60;44.50;;;;;;5033857;28;20556;-63
2021/05/10 01:58:09;;;;;;;2.22;0.98;;;18.50;44.30;;;;;;5030782;28;20124;-64
2021/05/10 02:00:43;;;;;;;0.70;0.70;;;18.50;44.10;;;;;;5031883;28;20049;-64
2021/05/10 02:03:16;;;;;;;1.02;0.88;;;18.50;44.50;;;;;;5035890;28;20568;-64
2021/05/10 02:05:50;;;;;;;1.10;0.70;;;18.40;44.70;;;;;;5033541;28;20047;-64
2021/05/10 02:08:17;;;;;;;1.20;0.82;;;18.40;44.70;;;;;;5035616;28;20033;-64
2021/05/10 02:10:48;;;;;;;0.98;0.82;;;18.30;44.90;;;;;;5029042;28;20117;-63
2021/05/10 02:13:18;;;;;;;0.95;0.90;;;18.20;44.70;;;;;;5032210;28;20040;-64
2021/05/10 02:15:48;;;;;;;3.42;1.05;;;18.10;44.90;;;;;;5032432;28;20091;-64
2021/05/10 02:18:17;;;;;;;0.73;0.70;;;18.10;45.00;;;;;;5035767;28;20037;-64
2021/05/10 02:20:49;;;;;;;0.65;0.60;;;18.00;45.00;;;;;;5035809;28;20125;-64
2021/05/10 02:23:24;;;;;;;0.90;0.68;;;18.10;45.20;;;;;;5035069;28;20030;-64
2021/05/10 02:25:54;;;;;;;3.33;0.95;;;18.10;45.30;;;;;;5035510;28;20470;-64
2021/05/10 02:28:26;;;;;;;1.00;0.90;;;18.10;45.10;;;;;;5034561;28;20037;-64
2021/05/10 02:30:59;;;;;;;0.93;0.70;;;18.10;45.10;;;;;;5037497;28;20034;-64
2021/05/10 02:33:27;;;;;;;2.63;0.70;;;18.10;45.20;;;;;;5031508;28;20441;-64
2021/05/10 02:35:58;;;;;;;3.00;0.82;;;18.20;45.00;;;;;;5030318;28;20041;-64
2021/05/10 02:38:26;;;;;;;1.63;0.90;;;18.30;45.00;;;;;;5034765;28;20452;-64
2021/05/10 02:40:56;;;;;;;0.88;0.85;;;18.30;45.20;;;;;;5033577;28;20068;-64
2021/05/10 02:43:30;;;;;;;3.42;0.85;;;18.50;45.00;;;;;;5031445;28;20033;-64
2021/05/10 02:45:58;;;;;;;2.40;0.80;;;18.60;44.90;;;;;;5031677;28;20041;-64
2021/05/10 02:48:28;;;;;;;1.00;0.82;;;18.60;44.80;;;;;;5031948;28;20033;-64
2021/05/10 02:50:54;;;;;;;3.10;0.88;;;18.70;44.80;;;;;;5033862;28;20037;-64
2021/05/10 02:53:22;;;;;;;1.48;0.80;;;18.80;44.50;;;;;;5034738;28;20105;-64
2021/05/10 02:55:52;;;;;;;1.17;0.77;;;18.90;44.70;;;;;;5036331;28;20037;-64
2021/05/10 02:58:20;;;;;;;1.27;0.73;;;19.00;45.00;;;;;;5031660;28;20204;-64
2021/05/10 03:00:50;;;;;;;1.15;0.82;;;19.00;45.00;;;;;;5030176;28;20160;-64
2021/05/10 03:03:20;;;;;;;2.70;0.70;;;19.10;45.00;;;;;;5032229;28;20029;-64
2021/05/10 03:05:48;;;;;;;2.63;0.82;;;19.10;44.80;;;;;;5031965;28;20041;-63
2021/05/10 03:08:19;;;;;;;2.45;0.68;;;19.00;44.70;;;;;;5036470;28;20033;-62
2021/05/10 03:10:49;;;;;;;1.42;0.65;;;19.00;44.90;;;;;;5030966;28;20051;-64
2021/05/10 03:13:14;;;;;;;3.63;1.00;;;19.00;44.70;;;;;;5034511;28;20439;-64
2021/05/10 03:15:45;;;;;;;2.20;0.80;;;19.00;44.80;;;;;;5028156;28;20044;-64
2021/05/10 03:18:15;;;;;;;1.90;1.00;;;19.00;44.80;;;;;;5031986;28;20040;-64
2021/05/10 03:20:41;;;;;;;1.05;0.73;;;19.00;44.80;;;;;;5032105;28;20100;-64
2021/05/10 03:23:11;;;;;;;1.05;0.70;;;19.00;44.80;;;;;;5034088;28;20064;-64
2021/05/10 03:25:39;;;;;;;1.00;0.90;;;19.00;44.80;;;;;;5027547;28;20037;-64
2021/05/10 03:28:09;;;;;;;0.90;0.90;;;19.00;45.20;;;;;;5035995;28;20037;-64
2021/05/10 03:30:35;;;;;;;3.17;0.90;;;19.00;45.10;;;;;;5032637;28;20029;-63
2021/05/10 03:33:03;;;;;;;1.05;0.80;;;18.90;45.20;;;;;;5027500;28;20045;-63
2021/05/10 03:35:31;;;;;;;1.63;1.00;;;18.90;45.40;;;;;;5029493;28;20041;-64
2021/05/10 03:37:57;;;;;;;2.60;0.80;;;18.80;45.40;;;;;;5029260;28;20095;-63
2021/05/10 03:40:27;;;;;;;1.13;0.90;;;18.80;45.20;;;;;;5030807;28;20567;-64
2021/05/10 03:42:59;;;;;;;0.70;0.52;;;18.80;46.00;;;;;;5027925;28;20041;-63
2021/05/10 03:45:29;;;;;;;1.33;0.90;;;18.80;45.30;;;;;;5032497;28;20033;-63
2021/05/10 03:47:59;;;;;;;1.13;0.80;;;18.80;45.10;;;;;;5028662;28;20026;-64
2021/05/10 03:50:27;;;;;;;1.27;0.68;;;18.90;45.00;;;;;;5028489;28;20037;-64
2021/05/10 03:52:55;;;;;;;1.48;0.70;;;19.00;44.90;;;;;;5037871;28;20120;-64
2021/05/10 03:55:26;;;;;;;0.82;0.80;;;19.10;44.80;;;;;;5034680;28;20099;-64
2021/05/10 03:57:58;;;;;;;0.98;0.80;;;19.30;44.50;;;;;;5035474;28;20052;-64
2021/05/10 04:00:26;;;;;;;0.80;0.80;;;19.40;44.20;;;;;;5036031;28;20635;-64
2021/05/10 04:02:55;;;;;;;2.25;0.80;;;19.60;44.10;;;;;;5036975;28;20039;-64
2021/05/10 04:11:05;;;;;;;1.25;0.80;;;20.10;43.30;;;;;;5030412;28;20041;-63
2021/05/10 04:14:06;;;;;;;0.98;0.70;;;20.20;42.90;;;;;;5032482;28;20048;-64
2021/05/10 04:16:24;;;;;;;3.92;1.13;;;20.30;42.50;;;;;;5030903;28;20053;-64
2021/05/10 04:18:57;;;;;;;6.88;0.80;;;20.50;42.40;;;;;;5035019;28;20044;-64
2021/05/10 04:21:25;;;;;;;5.32;1.70;;;20.60;42.10;;;;;;5033173;28;20037;-63
2021/05/10 04:23:55;;;;;;;1.67;1.30;;;20.70;42.00;;;;;;5037368;28;20523;-63
2021/05/10 04:26:23;;;;;;;4.53;1.80;;;20.70;41.80;;;;;;5033476;28;20500;-65
2021/05/10 04:28:51;;;;;;;3.60;1.20;;;20.80;41.60;;;;;;5033369;28;20068;-64
2021/05/10 04:31:17;;;;;;;2.40;0.90;;;20.90;41.50;;;;;;5029101;28;20048;-64
2021/05/10 04:33:44;;;;;;;2.83;1.00;;;21.00;41.40;;;;;;5025066;28;20041;-64
2021/05/10 04:36:14;;;;;;;2.65;1.02;;;21.00;41.30;;;;;;5030480;28;20041;-64
2021/05/10 04:38:47;;;;;;;0.95;0.70;;;21.00;41.10;;;;;;5035529;28;20041;-64
2021/05/10 04:41:20;;;;;;;2.70;1.08;;;21.10;41.70;;;;;;5037141;28;20033;-64
2021/05/10 04:43:50;;;;;;;2.22;0.80;;;21.20;41.00;;;;;;5034971;28;20037;-64
2021/05/10 04:46:18;;;;;;;3.35;0.73;;;21.20;41.00;;;;;;5037982;28;20517;-64
2021/05/10 04:48:46;;;;;;;5.28;0.90;;;21.30;40.90;;;;;;5036115;28;20053;-64
2021/05/10 04:51:16;;;;;;;1.88;0.80;;;21.30;40.90;;;;;;5037743;28;20555;-64
2021/05/10 04:53:44;;;;;;;2.10;0.63;;;21.30;40.70;;;;;;5038063;28;20061;-65
2021/05/10 04:56:10;;;;;;;2.58;0.60;;;21.40;40.70;;;;;;5035432;28;20045;-65
2021/05/10 04:58:35;;;;;;;2.13;0.50;;;21.40;40.60;;;;;;5038213;28;20489;-65
2021/05/10 05:01:03;;;;;;;2.33;0.65;;;21.40;40.60;;;;;;5037012;28;20072;-64
2021/05/10 05:03:33;;;;;;;1.45;0.68;;;21.50;40.60;;;;;;5038815;28;20033;-65
2021/05/10 05:06:04;;;;;;;4.68;0.80;;;21.50;40.50;;;;;;5038084;28;20120;-65
2021/05/10 05:08:34;;;;;;;1.75;0.68;;;21.50;40.30;;;;;;5036425;28;20036;-64
2021/05/10 05:11:02;;;;;;;1.50;0.60;;;21.50;40.50;;;;;;5034672;28;20037;-64
2021/05/10 05:13:30;;;;;;;1.05;0.68;;;21.50;40.40;;;;;;5037415;28;20029;-64
2021/05/10 05:16:01;;;;;;;2.15;0.60;;;21.50;40.30;;;;;;5037745;28;20060;-65
2021/05/10 05:18:29;;;;;;;1.52;0.65;;;21.50;40.40;;;;;;5036372;28;20037;-65
2021/05/10 05:20:56;;;;;;;4.03;0.60;;;21.60;40.40;;;;;;5035385;28;20034;-64
2021/05/10 05:23:32;;;;;;;5.35;0.88;;;21.60;40.30;;;;;;5037187;28;20034;-64
2021/05/10 05:26:03;;;;;;;3.75;0.70;;;21.60;40.40;;;;;;5036006;28;20030;-64
2021/05/10 05:28:34;;;;;;;2.45;0.75;;;21.60;40.40;;;;;;5039105;28;20417;-64
2021/05/10 05:31:04;;;;;;;1.38;0.80;;;21.50;40.60;;;;;;5039434;28;20117;-65
2021/05/10 05:33:36;;;;;;;3.90;0.88;;;21.50;40.60;;;;;;5036773;28;20042;-64
2021/05/10 05:36:05;;;;;;;1.45;0.70;;;21.60;40.50;;;;;;5037462;28;20046;-64
2021/05/10 05:38:36;;;;;;;4.05;0.80;;;21.50;40.50;;;;;;5036646;28;20033;-65
2021/05/10 05:41:02;;;;;;;5.15;0.80;;;21.50;40.50;;;;;;5035882;28;20041;-64
2021/05/10 05:43:32;;;;;;;1.02;0.73;;;21.50;40.60;;;;;;5034674;28;20090;-64
2021/05/10 05:46:02;;;;;;;3.88;0.50;;;21.60;40.60;;;;;;5038151;28;20145;-65
2021/05/10 05:48:30;;;;;;;5.40;0.82;;;21.60;40.60;;;;;;5034044;28;20029;-64
2021/05/10 05:50:58;;;;;;;3.08;1.13;;;21.70;40.60;;;;;;5035101;28;20460;-64
2021/05/10 05:53:28;;;;;;;2.58;0.60;;;21.70;40.60;;;;;;5035982;28;20500;-64
2021/05/10 05:55:54;;;;;;;2.63;0.80;;;21.70;40.40;;;;;;5037129;28;20504;-64
2021/05/10 05:58:22;;;;;;;1.48;0.50;;;21.80;40.40;;;;;;5037636;28;20041;-65
2021/05/10 06:00:48;;;;;;;3.58;0.80;;;21.80;40.20;;;;;;5037045;28;20037;-64
2021/05/10 06:03:16;;;;;;;2.55;0.60;;;21.90;40.30;;;;;;5036130;28;20099;-65
2021/05/10 06:05:46;;;;;;;0.73;0.45;;;21.90;40.30;;;;;;5034771;28;20581;-64
2021/05/10 06:08:15;;;;;;;1.45;0.60;;;21.90;40.20;;;;;;5034703;28;20029;-65
2021/05/10 06:10:45;;;;;;;1.63;0.60;;;22.00;40.00;;;;;;5034792;28;20392;-64
2021/05/10 06:13:15;;;;;;;2.85;0.60;;;22.00;40.00;;;;;;5035358;28;20121;-64
2021/05/10 06:15:43;;;;;;;5.28;0.70;;;22.00;40.00;;;;;;5035612;28;20564;-64
2021/05/10 06:18:14;;;;;;;4.50;0.60;;;22.10;39.90;;;;;;5035724;28;20034;-65
2021/05/10 06:20:44;;;;;;;4.72;0.80;;;22.10;40.00;;;;;;5035055;28;20030;-64
2021/05/10 06:23:12;;;;;;;3.00;0.77;;;22.10;40.00;;;;;;5041226;28;20037;-64
2021/05/10 06:25:40;;;;;;;3.88;0.60;;;22.10;40.10;;;;;;5036815;28;20053;-64
2021/05/10 06:28:13;;;;;;;2.05;0.63;;;22.10;40.20;;;;;;5037788;28;20112;-64
2021/05/10 06:30:43;;;;;;;3.53;0.60;;;22.10;40.20;;;;;;5033767;28;20045;-64
2021/05/10 06:33:09;;;;;;;3.72;0.60;;;22.20;40.30;;;;;;5035547;28;20685;-64
2021/05/10 06:35:39;;;;;;;1.77;0.70;;;22.20;40.70;;;;;;5033314;28;20045;-64
2021/05/10 06:38:13;;;;;;;2.10;0.60;;;22.20;40.50;;;;;;5035637;28;20033;-64
2021/05/10 06:40:42;;;;;;;1.50;0.50;;;22.30;40.30;;;;;;5034515;28;20033;-64
2021/05/10 06:43:08;;;;;;;2.17;0.50;;;22.40;40.20;;;;;;5034996;28;20034;-64
2021/05/10 06:45:36;;;;;;;4.05;0.50;;;22.50;40.30;;;;;;5034251;28;20038;-64
2021/05/10 06:48:04;;;;;;;0.85;0.45;;;22.50;40.10;;;;;;5033844;28;20145;-64
2021/05/10 06:50:37;;;;;;;2.10;0.40;;;22.60;40.10;;;;;;5034025;28;20044;-64
2021/05/10 06:53:05;;;;;;;0.63;0.40;;;22.70;40.10;;;;;;5035143;28;20040;-63
2021/05/10 06:55:35;;;;;;;2.40;0.50;;;22.80;40.10;;;;;;5033252;28;20512;-64
2021/05/10 06:58:10;;;;;;;3.75;1.13;;;22.90;40.10;;;;;;5034753;28;20280;-64
2021/05/10 07:00:37;;;;;;;2.45;0.93;;;23.00;39.50;;;;;;5032169;28;20149;-64
2021/05/10 07:03:07;;;;;;;2.65;0.98;;;23.10;39.50;;;;;;5021278;28;20044;-65
2021/05/10 07:05:33;;;;;;;2.20;0.70;;;23.20;39.20;;;;;;5033232;28;20041;-64
2021/05/10 07:08:08;;;;;;;2.35;0.77;;;23.30;39.10;;;;;;5033607;28;20072;-64
2021/05/10 07:10:38;;;;;;;2.97;0.57;;;23.40;38.80;;;;;;5033957;28;20045;-64
2021/05/10 07:13:06;;;;;;;2.92;0.57;;;23.40;38.80;;;;;;5035396;28;20029;-65
2021/05/10 07:15:35;;;;;;;1.75;0.60;;;23.50;38.70;;;;;;5036060;28;20033;-63
2021/05/10 07:18:05;;;;;;;2.28;0.70;;;23.60;38.90;;;;;;5035165;28;20099;-65
2021/05/10 07:20:36;;;;;;;3.30;0.60;;;23.60;38.60;;;;;;5035612;28;20041;-64
2021/05/10 07:23:04;;;;;;;2.40;0.70;;;23.70;39.30;;;;;;5037317;28;20507;-64
2021/05/10 07:25:30;;;;;;;4.90;0.70;;;23.70;38.50;;;;;;5036931;28;20041;-65
2021/05/10 07:28:02;;;;;;;0.82;0.80;;;23.70;38.30;;;;;;5035157;28;20041;-65
2021/05/10 07:30:29;;;;;;;4.93;0.70;;;23.80;38.20;;;;;;5034109;28;20403;-65
2021/05/10 07:32:57;;;;;;;3.13;0.70;;;23.80;38.70;;;;;;5034338;28;20408;-64
2021/05/10 07:35:27;;;;;;;3.03;0.70;;;23.80;38.40;;;;;;5036258;28;20041;-65
2021/05/10 07:37:55;;;;;;;5.63;0.70;;;23.80;38.40;;;;;;5033700;28;20064;-64
2021/05/10 07:40:25;;;;;;;4.50;0.73;;;23.90;38.50;;;;;;5034626;28;20120;-64
2021/05/10 07:42:56;;;;;;;2.83;0.60;;;24.00;38.70;;;;;;5041486;28;20041;-64
2021/05/10 07:45:29;;;;;;;3.67;0.90;;;24.10;38.70;;;;;;5036214;28;20026;-65
2021/05/10 07:47:57;;;;;;;3.35;0.90;;;24.10;38.30;;;;;;5036415;28;20033;-64
2021/05/10 07:50:28;;;;;;;4.20;0.63;;;24.20;39.10;;;;;;5035987;28;20088;-65
2021/05/10 07:52:56;;;;;;;9.77;0.88;;;24.30;38.50;;;;;;5034463;28;20034;-65
2021/05/10 07:55:25;;;;;;;6.40;0.80;;;24.40;38.00;;;;;;5035985;28;20095;-64
2021/05/10 07:57:53;;;;;;;2.03;0.73;;;24.50;37.50;;;;;;5035181;28;20038;-64
2021/05/10 08:00:31;;;;;;;2.15;0.52;;;24.60;37.10;;;;;;5037116;28;20041;-65
2021/05/10 08:03:05;;;;;;;3.47;0.60;;;24.70;36.90;;;;;;5033892;28;20036;-64
2021/05/10 08:05:35;;;;;;;1.43;0.40;;;24.80;36.80;;;;;;5036321;28;20296;-65
2021/05/10 08:08:01;;;;;;;11.40;1.00;;;24.90;36.40;;;;;;5034455;28;20599;-64
2021/05/10 08:10:29;;;;;;;2.25;0.70;;;24.90;36.30;;;;;;5033293;28;20037;-65
2021/05/10 08:12:55;;;;;;;6.53;0.70;;;25.00;36.20;;;;;;5034955;28;20126;-65
2021/05/10 08:15:25;;;;;;;3.30;0.50;;;25.00;36.00;;;;;;5035882;28;20053;-65
2021/05/10 08:17:55;;;;;;;1.83;0.60;;;25.10;35.20;;;;;;5034515;28;20041;-65
2021/05/10 08:20:26;;;;;;;0.98;0.50;;;25.20;34.80;;;;;;5034654;28;20037;-65
2021/05/10 08:22:56;;;;;;;2.88;0.73;;;25.20;34.80;;;;;;5033801;28;20611;-64
2021/05/10 08:25:25;;;;;;;2.53;0.40;;;25.30;34.90;;;;;;5034983;28;20038;-64
2021/05/10 08:27:55;;;;;;;5.80;0.57;;;25.30;34.90;;;;;;5034573;28;20031;-64
2021/05/10 08:30:26;;;;;;;4.20;0.80;;;25.40;34.60;;;;;;5036058;28;20080;-65
2021/05/10 08:33:02;;;;;;;3.28;0.60;;;25.40;34.50;;;;;;5037288;28;20041;-64
2021/05/10 08:35:32;;;;;;;7.90;0.68;;;25.50;34.30;;;;;;5036261;28;20049;-64
2021/05/10 08:38:01;;;;;;;4.97;0.60;;;25.50;34.30;;;;;;5036727;28;20420;-64
2021/05/10 08:40:27;;;;;;;1.75;0.47;;;25.60;33.90;;;;;;5037298;28;20091;-65
2021/05/10 08:42:54;;;;;;;1.95;0.55;;;25.60;34.50;;;;;;5034328;28;20049;-64
2021/05/10 08:45:28;;;;;;;2.95;0.50;;;25.70;34.30;;;;;;5035451;28;20030;-65
2021/05/10 08:47:59;;;;;;;1.48;0.63;;;25.70;33.80;;;;;;5037328;28;20029;-65
2021/05/10 08:50:29;;;;;;;2.70;0.80;;;25.80;33.40;;;;;;5037624;28;20030;-65
2021/05/10 08:52:57;;;;;;;1.85;0.65;;;25.80;33.70;;;;;;5036951;28;20504;-65
2021/05/10 08:55:25;;;;;;;8.90;0.88;;;25.90;33.50;;;;;;5037010;28;20063;-64
2021/05/10 08:57:51;;;;;;;3.90;0.60;;;26.00;33.20;;;;;;5044391;28;20378;-64
2021/05/10 09:00:22;;;;;;;1.23;0.60;;;26.00;33.30;;;;;;5034736;28;20091;-65
2021/05/10 09:02:47;;;;;;;2.42;0.60;;;26.10;32.90;;;;;;5037197;28;20041;-65
2021/05/10 09:05:20;;;;;;;0.60;0.40;;;26.10;32.60;;;;;;5036750;28;20573;-64
2021/05/10 09:08:07;;;;;;;3.28;0.80;;;26.20;32.80;;;;;;5041412;28;20034;-64
2021/05/10 09:10:32;;;;;;;1.13;0.70;;;26.30;32.50;;;;;;5031746;28;20041;-65
2021/05/10 09:13:00;;;;;;;1.30;0.40;;;26.30;32.40;;;;;;5034579;28;20037;-65
2021/05/10 09:15:30;;;;;;;3.95;0.43;;;26.40;32.40;;;;;;5036177;28;20040;-64
2021/05/10 09:18:21;;;;;;;1.83;0.60;;;26.50;32.60;;;;;;5036361;28;20033;-65
2021/05/10 09:20:53;;;;;;;2.17;0.40;;;26.60;33.00;;;;;;5035429;28;20104;-64
2021/05/10 09:23:33;;;;;;;3.38;0.40;;;26.70;32.90;;;;;;5036220;28;20037;-65
2021/05/10 09:25:58;;;;;;;2.75;0.50;;;26.80;32.30;;;;;;5037410;28;20080;-64
2021/05/10 09:28:28;;;;;;;1.35;0.32;;;26.90;32.40;;;;;;5036997;28;20060;-64
2021/05/10 09:31:02;;;;;;;0.50;0.47;;;27.00;32.40;;;;;;5035276;28;20509;-65
2021/05/10 09:33:30;;;;;;;2.75;0.50;;;27.10;31.10;;;;;;5037168;28;20040;-64
2021/05/10 09:36:08;;;;;;;4.10;0.35;;;27.20;31.20;;;;;;5036287;28;20048;-65
2021/05/10 09:38:38;;;;;;;0.93;0.60;;;27.20;30.90;;;;;;5035986;28;20033;-65
2021/05/10 09:41:12;;;;;;;4.28;0.60;;;27.30;31.10;;;;;;5036970;28;20037;-64
2021/05/10 09:43:42;;;;;;;4.15;0.50;;;27.30;30.70;;;;;;5036115;28;20041;-65
2021/05/10 09:46:12;;;;;;;2.38;0.50;;;27.40;30.90;;;;;;5031479;28;20037;-65
2021/05/10 09:48:45;;;;;;;1.40;0.40;;;27.40;30.60;;;;;;5041693;28;20033;-65
2021/05/10 09:51:19;;;;;;;3.17;0.43;;;27.40;30.70;;;;;;5036490;28;20048;-65
2021/05/10 09:53:54;;;;;;;2.42;0.40;;;27.40;30.70;;;;;;5033948;28;20115;-65
2021/05/10 09:56:31;;;;;;;1.88;0.47;;;27.50;30.80;;;;;;5037343;28;20140;-65
2021/05/10 09:59:01;;;;;;;0.50;0.45;;;27.50;30.60;;;;;;5035415;28;20106;-65
2021/05/10 10:01:43;;;;;;;1.00;0.50;;;27.60;30.10;;;;;;5035938;28;20032;-65
2021/05/10 10:04:14;;;;;;;0.77;0.40;;;27.60;30.60;;;;;;5036957;28;20037;-65
2021/05/10 10:06:45;;;;;;;1.75;0.32;;;27.70;30.50;;;;;;5038391;28;20025;-65
2021/05/10 10:09:16;;;;;;;0.85;0.45;;;27.70;30.60;;;;;;5034649;28;20420;-65
2021/05/10 10:11:46;;;;;;;1.33;0.35;;;27.80;31.00;;;;;;5030954;28;20129;-65
2021/05/10 10:14:14;;;;;;;3.60;0.77;;;27.80;30.90;;;;;;5037392;28;20056;-65
2021/05/10 10:16:40;;;;;;;1.77;0.70;;;27.80;30.80;;;;;;5037221;28;20044;-65
2021/05/10 10:19:12;;;;;;;0.68;0.47;;;27.90;31.30;;;;;;5038434;28;20026;-65
2021/05/10 10:21:43;;;;;;;0.77;0.32;;;27.90;30.90;;;;;;5035203;28;20025;-65
2021/05/10 10:24:12;;;;;;;1.88;0.30;;;28.00;30.80;;;;;;5037441;28;20044;-65
2021/05/10 10:26:42;;;;;;;1.58;0.40;;;28.00;30.40;;;;;;5036824;28;20032;-65
2021/05/10 10:29:16;;;;;;;1.27;0.45;;;28.00;30.10;;;;;;5038141;28;20033;-65
2021/05/10 10:31:45;;;;;;;0.40;0.30;;;28.00;29.90;;;;;;5035623;28;20029;-65
2021/05/10 10:34:26;;;;;;;1.13;0.32;;;28.10;30.00;;;;;;5036696;28;20116;-66
2021/05/10 10:36:58;;;;;;;2.13;0.40;;;28.00;30.00;;;;;;5036537;28;20028;-65
2021/05/10 10:39:27;;;;;;;1.17;0.40;;;28.10;30.10;;;;;;5037663;28;20025;-65
2021/05/10 10:42:05;;;;;;;2.83;0.47;;;28.10;30.60;;;;;;5034878;28;20078;-65
2021/05/10 10:44:39;;;;;;;2.05;0.40;;;28.10;30.30;;;;;;5040239;28;20399;-65
2021/05/10 10:47:08;;;;;;;1.77;0.47;;;28.20;30.40;;;;;;5033044;28;20034;-65
2021/05/10 10:49:41;;;;;;;1.10;0.50;;;28.20;30.00;;;;;;5036969;28;20030;-65
2021/05/10 10:52:47;;;;;;;1.73;0.50;;;28.20;29.70;;;;;;5037182;28;20512;-65
2021/05/10 10:55:21;;;;;;;0.73;0.30;;;28.30;29.40;;;;;;5033402;28;20053;-65
2021/05/10 10:57:49;;;;;;;0.70;0.30;;;28.30;29.40;;;;;;5032308;28;20112;-65
2021/05/10 11:00:18;;;;;;;2.25;0.50;;;28.20;29.20;;;;;;5033214;28;20511;-65
2021/05/10 11:02:52;;;;;;;7.18;0.68;;;28.20;29.20;;;;;;5034603;28;20037;-65
2021/05/10 11:05:27;;;;;;;5.28;0.50;;;28.20;29.40;;;;;;5034867;28;20112;-65
2021/05/10 11:08:08;;;;;;;2.15;0.60;;;28.10;29.20;;;;;;5043108;28;20036;-64
2021/05/10 11:10:54;;;;;;;2.25;0.60;;;28.10;29.60;;;;;;5027274;28;20279;-66
2021/05/10 11:13:36;;;;;;;1.70;0.60;;;28.00;30.00;;;;;;5033420;28;20057;-65
2021/05/10 11:16:20;;;;;;;0.70;0.40;;;28.00;31.60;;;;;;5034117;28;20075;-65
2021/05/10 11:18:58;;;;;;;0.67;0.50;;;27.90;31.80;;;;;;5034195;28;20436;-65
2021/05/10 11:21:25;;;;;;;1.20;0.70;;;27.80;32.00;;;;;;5032451;28;20034;-65
2021/05/10 11:23:55;;;;;;;0.77;0.60;;;27.70;31.80;;;;;;5032243;28;20447;-66
2021/05/10 11:26:52;;;;;;;0.55;0.50;;;27.70;31.80;;;;;;5031771;28;20419;-64
2021/05/10 11:29:35;;;;;;;1.90;0.52;;;27.60;31.40;;;;;;5035237;28;20408;-65
2021/05/10 11:32:15;;;;;;;2.55;0.52;;;27.50;31.80;;;;;;5035128;28;20103;-65
2021/05/10 11:34:45;;;;;;;1.33;0.60;;;27.50;32.50;;;;;;5030788;28;20044;-65
2021/05/10 11:37:15;;;;;;;1.55;0.70;;;27.40;32.80;;;;;;5034611;28;20045;-65
2021/05/10 11:39:46;;;;;;;2.22;0.50;;;27.40;33.40;;;;;;5032310;28;20029;-65
2021/05/10 11:42:16;;;;;;;0.70;0.52;;;27.30;34.40;;;;;;5034012;28;20041;-65
2021/05/10 11:44:47;;;;;;;1.40;0.55;;;27.30;34.30;;;;;;5036215;28;20040;-65
2021/05/10 11:47:16;;;;;;;1.05;0.60;;;27.30;33.90;;;;;;5035182;28;20692;-65
2021/05/10 11:49:51;;;;;;;2.47;0.50;;;27.30;33.90;;;;;;5033888;28;20036;-65
2021/05/10 11:52:26;;;;;;;3.03;0.45;;;27.20;34.00;;;;;;5034359;28;20045;-65
2021/05/10 11:54:54;;;;;;;1.75;0.60;;;27.20;33.80;;;;;;5035499;28;20095;-65
2021/05/10 11:57:27;;;;;;;2.80;0.80;;;27.10;33.70;;;;;;5033894;28;20894;-65
2021/05/10 12:02:35;;;;;;;0.50;0.50;;;27.10;34.20;;;;;;5037128;28;20072;-65
2021/05/10 12:05:05;;;;;;;2.28;0.70;;;27.10;34.50;;;;;;5037946;28;20295;-64
2021/05/10 12:07:38;;;;;;;3.13;0.70;;;27.00;34.50;;;;;;5037567;28;20048;-65
2021/05/10 12:10:11;;;;;;;2.85;0.75;;;27.00;34.80;;;;;;5036850;28;20037;-65
2021/05/10 12:12:48;;;;;;;2.90;0.50;;;27.00;35.10;;;;;;5037073;28;20033;-65
2021/05/10 12:15:23;;;;;;;1.10;0.68;;;26.90;35.40;;;;;;5038926;28;20696;-65
2021/05/10 12:17:53;;;;;;;1.52;0.60;;;26.90;35.20;;;;;;5037451;28;20037;-65
2021/05/10 12:20:31;;;;;;;1.17;0.60;;;26.90;36.10;;;;;;5036313;28;20044;-65
2021/05/10 12:23:00;;;;;;;0.90;0.50;;;26.90;36.10;;;;;;5037635;28;20033;-65
2021/05/10 12:25:33;;;;;;;1.65;0.60;;;27.00;36.50;;;;;;5037136;28;20036;-65
2021/05/10 12:28:17;;;;;;;5.05;0.55;;;27.00;36.20;;;;;;5038868;28;20037;-65
2021/05/10 12:30:47;;;;;;;0.93;0.52;;;27.00;35.20;;;;;;5036696;28;20044;-64
2021/05/10 12:33:26;;;;;;;2.42;0.45;;;27.10;34.50;;;;;;5036586;28;20578;-65
2021/05/10 12:35:59;;;;;;;3.15;0.60;;;27.10;34.30;;;;;;5036374;28;20118;-65
2021/05/10 12:38:29;;;;;;;3.40;0.60;;;27.10;34.60;;;;;;5035314;28;20025;-65
2021/05/10 12:40:58;;;;;;;3.03;0.40;;;27.00;35.00;;;;;;5038454;28;20033;-65
2021/05/10 12:43:29;;;;;;;1.40;0.60;;;27.00;35.50;;;;;;5037736;28;20566;-65
2021/05/10 12:46:02;;;;;;;1.50;0.60;;;27.00;34.50;;;;;;5036992;28;20048;-65
2021/05/10 12:48:47;;;;;;;2.60;0.60;;;27.10;34.60;;;;;;5038766;28;20030;-65
2021/05/10 12:51:19;;;;;;;;;;;27.00;33.80;;;;;;5037498;28;20044;-65
2021/05/10 12:54:00;;;;;;;2.65;1.35;;;27.10;36.80;;;;;;5036769;28;19917;-65
2021/05/10 12:56:40;;;;;;;3.28;1.50;;;27.00;38.10;;;;;;5035620;28;20037;-64
2021/05/10 12:59:08;;;;;;;4.40;1.33;;;26.90;39.30;;;;;;5037294;28;20412;-65
2021/05/10 13:01:38;;;;;;;3.47;1.45;;;26.70;39.90;;;;;;5036028;28;20033;-65
2021/05/10 13:04:09;;;;;;;2.47;1.38;;;26.40;40.90;;;;;;5037188;28;20443;-65
2021/05/10 13:06:44;;;;;;;1.38;1.25;;;26.20;41.10;;;;;;5041165;28;20033;-65
2021/05/10 13:09:28;;;;;;;4.25;1.40;;;26.00;41.50;;;;;;5031912;28;20529;-65
2021/05/10 13:12:05;;;;;;;5.35;1.10;;;25.60;43.10;;;;;;5034956;28;20033;-65
2021/05/10 13:20:06;;;;;;;1.55;1.13;;;25.00;43.00;;;;;;5034358;28;20026;-65